createdAt,value
2017-11-15T00:01:50.108Z,102247.72
2017-11-15T00:03:51.844Z,102252.92
2017-11-15T00:05:53.290Z,102244.76
2017-11-15T00:07:54.723Z,102243.47
2017-11-15T00:09:56.460Z,102242.57
2017-11-15T00:11:58.045Z,102244.33
2017-11-15T00:14:00.319Z,102242.19
2017-11-15T00:16:01.626Z,102247.77
2017-11-15T00:18:03.315Z,102242.09
2017-11-15T00:20:04.751Z,102238.75
2017-11-15T00:22:06.665Z,102243.47
2017-11-15T00:24:07.904Z,102241.28
2017-11-15T00:26:09.519Z,102245.14
2017-11-15T00:28:10.990Z,102241.75
2017-11-15T00:30:12.366Z,102246.43
2017-11-15T00:32:13.879Z,102239.56
2017-11-15T00:34:15.427Z,102243.81
2017-11-15T00:36:16.768Z,102247.67
2017-11-15T00:38:18.335Z,102242.95
2017-11-15T00:40:19.643Z,102253.68
2017-11-15T00:42:21.031Z,102250.67
2017-11-15T00:44:22.684Z,102252.44
2017-11-15T00:46:24.234Z,102251.07
2017-11-15T00:48:25.667Z,102245.52
2017-11-15T00:50:27.443Z,102254.50
2017-11-15T00:52:28.998Z,102250.20
2017-11-15T00:54:30.331Z,102248.05
2017-11-15T00:56:31.767Z,102245.44
2017-11-15T00:58:33.098Z,102246.30
2017-11-15T01:00:34.678Z,102245.87
2017-11-15T01:02:35.949Z,102238.61
2017-11-15T01:04:37.593Z,102249.34
2017-11-15T01:06:39.546Z,102246.73
2017-11-15T01:08:41.207Z,102253.63
2017-11-15T01:10:42.488Z,102243.72
2017-11-15T01:12:43.793Z,102243.25
2017-11-15T01:14:45.460Z,102240.23
2017-11-15T01:16:47.410Z,102245.78
2017-11-15T01:18:48.852Z,102243.71
2017-11-15T01:20:50.193Z,102243.63
2017-11-15T01:22:51.503Z,102246.67
2017-11-15T01:24:53.609Z,102245.78
2017-11-15T01:26:55.262Z,102244.48
2017-11-15T01:28:56.718Z,102244.05
2017-11-15T01:30:57.999Z,102252.16
2017-11-15T01:32:59.323Z,102247.45
2017-11-15T01:35:00.650Z,102240.72
2017-11-15T01:37:02.106Z,102251.31
2017-11-15T01:39:03.563Z,102247.45
2017-11-15T01:41:05.000Z,102252.16
2017-11-15T01:43:06.353Z,102248.73
2017-11-15T01:45:07.716Z,102252.16
2017-11-15T01:47:09.151Z,102246.59
2017-11-15T01:49:10.634Z,102243.11
2017-11-15T01:51:12.252Z,102249.12
2017-11-15T01:53:14.623Z,102238.43
2017-11-15T01:55:15.888Z,102242.67
2017-11-15T01:57:17.531Z,102241.86
2017-11-15T01:59:18.976Z,102247.83
2017-11-15T02:01:20.448Z,102243.58
2017-11-15T02:03:21.767Z,102235.42
2017-11-15T02:05:23.203Z,102234.13
2017-11-15T02:07:24.569Z,102231.52
2017-11-15T02:09:26.021Z,102225.93
2017-11-15T02:11:27.334Z,102228.08
2017-11-15T02:13:29.021Z,102226.80
2017-11-15T02:15:30.373Z,102223.35
2017-11-15T02:17:31.788Z,102231.09
2017-11-15T02:19:33.174Z,102225.50
2017-11-15T02:21:34.419Z,102225.07
2017-11-15T02:23:35.860Z,102226.32
2017-11-15T02:25:37.224Z,102227.59
2017-11-15T02:27:38.869Z,102227.61
2017-11-15T02:29:40.447Z,102232.76
2017-11-15T02:31:42.599Z,102222.97
2017-11-15T02:33:44.764Z,102233.66
2017-11-15T02:35:46.050Z,102226.36
2017-11-15T02:37:48.257Z,102228.94
2017-11-15T02:39:49.598Z,102230.22
2017-11-15T02:41:51.069Z,102226.75
2017-11-15T02:43:53.432Z,102231.47
2017-11-15T02:45:54.889Z,102231.52
2017-11-15T02:47:56.400Z,102224.59
2017-11-15T02:49:57.775Z,102224.59
2017-11-15T02:51:59.371Z,102222.06
2017-11-15T02:54:00.716Z,102218.16
2017-11-15T02:56:02.240Z,102227.21
2017-11-15T02:58:03.576Z,102210.42
2017-11-15T03:00:04.925Z,102220.77
2017-11-15T03:02:06.384Z,102214.34
2017-11-15T03:04:07.827Z,102215.16
2017-11-15T03:06:09.169Z,102213.00
2017-11-15T03:08:10.436Z,102210.05
2017-11-15T03:10:11.882Z,102207.42
2017-11-15T03:12:13.180Z,102210.42
2017-11-15T03:14:14.772Z,102206.14
2017-11-15T03:16:16.217Z,102211.24
2017-11-15T03:18:17.760Z,102220.69
2017-11-15T03:20:19.034Z,102208.70
2017-11-15T03:22:20.672Z,102204.84
2017-11-15T03:24:21.991Z,102208.70
2017-11-15T03:26:23.372Z,102211.71
2017-11-15T03:28:24.707Z,102213.39
2017-11-15T03:30:26.271Z,102216.44
2017-11-15T03:32:27.612Z,102210.38
2017-11-15T03:34:28.858Z,102213.81
2017-11-15T03:36:30.099Z,102207.81
2017-11-15T03:38:31.562Z,102201.80
2017-11-15T03:40:33.095Z,102203.94
2017-11-15T03:42:34.632Z,102198.41
2017-11-15T03:44:37.036Z,102206.09
2017-11-15T03:46:38.416Z,102208.67
2017-11-15T03:48:39.820Z,102217.25
2017-11-15T03:50:41.395Z,102212.57
2017-11-15T03:52:42.622Z,102214.67
2017-11-15T03:54:44.177Z,102217.67
2017-11-15T03:56:45.619Z,102214.24
2017-11-15T03:58:47.079Z,102218.06
2017-11-15T04:00:48.611Z,102222.36
2017-11-15T04:02:49.909Z,102219.02
2017-11-15T04:04:51.233Z,102222.41
2017-11-15T04:06:52.523Z,102215.53
2017-11-15T04:08:53.917Z,102218.92
2017-11-15T04:10:55.280Z,102213.81
2017-11-15T04:12:56.542Z,102217.25
2017-11-15T04:14:58.269Z,102210.81
2017-11-15T04:16:59.610Z,102217.67
2017-11-15T04:19:01.164Z,102215.49
2017-11-15T04:21:02.621Z,102215.95
2017-11-15T04:23:04.156Z,102217.25
2017-11-15T04:25:05.712Z,102214.62
2017-11-15T04:27:07.796Z,102213.37
2017-11-15T04:29:09.129Z,102212.09
2017-11-15T04:31:10.418Z,102216.38
2017-11-15T04:33:12.128Z,102210.33
2017-11-15T04:35:13.590Z,102212.48
2017-11-15T04:37:15.131Z,102209.44
2017-11-15T04:39:16.398Z,102212.47
2017-11-15T04:41:19.463Z,102206.47
2017-11-15T04:43:20.891Z,102202.99
2017-11-15T04:45:22.357Z,102209.42
2017-11-15T04:47:23.697Z,102202.50
2017-11-15T04:49:25.256Z,102211.95
2017-11-15T04:51:26.611Z,102210.20
2017-11-15T04:53:28.073Z,102208.95
2017-11-15T04:55:29.743Z,102215.77
2017-11-15T04:57:31.609Z,102211.91
2017-11-15T04:59:33.130Z,102218.81
2017-11-15T05:01:34.472Z,102217.92
2017-11-15T05:03:35.807Z,102221.41
2017-11-15T05:05:37.268Z,102223.55
2017-11-15T05:07:38.837Z,102225.70
2017-11-15T05:09:40.155Z,102227.36
2017-11-15T05:11:41.600Z,102229.09
2017-11-15T05:13:43.056Z,102225.22
2017-11-15T05:15:44.455Z,102222.59
2017-11-15T05:17:45.984Z,102217.91
2017-11-15T05:19:47.402Z,102229.13
2017-11-15T05:21:48.705Z,102223.59
2017-11-15T05:23:50.106Z,102220.06
2017-11-15T05:25:51.560Z,102212.72
2017-11-15T05:27:53.017Z,102206.28
2017-11-15T05:29:54.568Z,102218.34
2017-11-15T05:31:56.117Z,102214.45
2017-11-15T05:33:57.655Z,102217.49
2017-11-15T05:35:59.223Z,102214.10
2017-11-15T05:38:00.766Z,102215.34
2017-11-15T05:40:02.112Z,102224.75
2017-11-15T05:42:03.459Z,102221.31
2017-11-15T05:44:04.887Z,102220.88
2017-11-15T05:46:06.281Z,102229.51
2017-11-15T05:48:07.601Z,102219.59
2017-11-15T05:50:08.905Z,102223.07
2017-11-15T05:52:10.606Z,102230.80
2017-11-15T05:54:11.960Z,102225.22
2017-11-15T05:56:13.526Z,102226.04
2017-11-15T05:58:15.177Z,102224.35
2017-11-15T06:00:16.729Z,102222.22
2017-11-15T06:02:18.285Z,102236.38
2017-11-15T06:04:19.852Z,102231.19
2017-11-15T06:06:21.392Z,102231.27
2017-11-15T06:08:23.138Z,102233.81
2017-11-15T06:10:24.660Z,102237.72
2017-11-15T06:12:26.266Z,102238.53
2017-11-15T06:14:27.834Z,102239.82
2017-11-15T06:16:29.789Z,102243.69
2017-11-15T06:18:31.427Z,102245.80
2017-11-15T06:20:33.066Z,102248.41
2017-11-15T06:22:34.560Z,102243.68
2017-11-15T06:24:36.202Z,102250.13
2017-11-15T06:26:38.070Z,102250.98
2017-11-15T06:28:40.332Z,102246.31
2017-11-15T06:30:42.023Z,102255.28
2017-11-15T06:32:43.842Z,102253.56
2017-11-15T06:34:45.473Z,102250.52
2017-11-15T06:36:47.048Z,102248.84
2017-11-15T06:38:48.665Z,102263.01
2017-11-15T06:40:50.333Z,102246.27
2017-11-15T06:42:52.185Z,102258.24
2017-11-15T06:44:53.743Z,102262.11
2017-11-15T06:46:55.403Z,102261.29
2017-11-15T06:48:56.967Z,102266.88
2017-11-15T06:50:58.595Z,102269.84
2017-11-15T06:53:00.469Z,102264.69
2017-11-15T06:55:02.221Z,102262.97
2017-11-15T06:57:03.760Z,102264.69
2017-11-15T06:59:05.331Z,102260.81
2017-11-15T07:01:06.977Z,102265.55
2017-11-15T07:03:08.630Z,102265.16
2017-11-15T07:05:10.174Z,102266.83
2017-11-15T07:07:12.547Z,102273.70
2017-11-15T07:09:14.110Z,102263.83
2017-11-15T07:11:15.764Z,102271.52
2017-11-15T07:13:17.441Z,102273.70
2017-11-15T07:15:19.169Z,102269.84
2017-11-15T07:17:22.576Z,102271.13
2017-11-15T07:19:23.895Z,102271.08
2017-11-15T07:21:25.148Z,102281.39
2017-11-15T07:23:26.796Z,102271.94
2017-11-15T07:25:28.285Z,102283.97
2017-11-15T07:27:29.906Z,102285.67
2017-11-15T07:29:31.445Z,102285.67
2017-11-15T07:31:33.109Z,102292.89
2017-11-15T07:33:34.759Z,102289.89
2017-11-15T07:35:36.315Z,102289.54
2017-11-15T07:37:37.979Z,102291.22
2017-11-15T07:39:39.616Z,102298.91
2017-11-15T07:41:41.184Z,102298.09
2017-11-15T07:43:42.737Z,102293.36
2017-11-15T07:45:44.384Z,102304.96
2017-11-15T07:47:45.936Z,102309.26
2017-11-15T07:49:47.465Z,102307.97
2017-11-15T07:51:48.950Z,102303.63
2017-11-15T07:53:50.469Z,102312.17
2017-11-15T07:55:52.832Z,102306.59
2017-11-15T07:57:54.302Z,102304.92
2017-11-15T07:59:55.940Z,102303.16
2017-11-15T08:01:57.510Z,102306.20
2017-11-15T08:03:59.153Z,102307.87
2017-11-15T08:06:00.580Z,102310.02
2017-11-15T08:08:02.159Z,102311.74
2017-11-15T08:10:03.699Z,102309.13
2017-11-15T08:12:05.260Z,102312.60
2017-11-15T08:14:06.904Z,102308.73
2017-11-15T08:16:08.460Z,102310.89
2017-11-15T08:18:09.906Z,102307.06
2017-11-15T08:20:11.355Z,102299.71
2017-11-15T08:22:13.009Z,102302.72
2017-11-15T08:24:14.656Z,102300.11
2017-11-15T08:26:16.313Z,102302.28
2017-11-15T08:28:17.756Z,102304.78
2017-11-15T08:30:19.417Z,102297.48
2017-11-15T08:32:20.828Z,102304.39
2017-11-15T08:34:22.514Z,102306.98
2017-11-15T08:36:24.100Z,102300.14
2017-11-15T08:38:25.913Z,102292.84
2017-11-15T08:40:27.459Z,102301.39
2017-11-15T08:42:29.023Z,102300.11
2017-11-15T08:44:30.463Z,102300.53
2017-11-15T08:46:32.158Z,102302.20
2017-11-15T08:48:33.781Z,102296.62
2017-11-15T08:50:37.548Z,102304.78
2017-11-15T08:52:38.883Z,102294.04
2017-11-15T08:54:40.370Z,102297.05
2017-11-15T08:56:41.834Z,102306.93
2017-11-15T08:58:43.370Z,102296.61
2017-11-15T09:00:45.635Z,102289.31
2017-11-15T09:02:47.198Z,102293.19
2017-11-15T09:04:48.730Z,102294.05
2017-11-15T09:06:50.279Z,102300.58
2017-11-15T09:08:51.837Z,102293.22
2017-11-15T09:10:53.285Z,102293.66
2017-11-15T09:12:55.761Z,102288.50
2017-11-15T09:14:57.211Z,102294.09
2017-11-15T09:16:58.767Z,102295.81
2017-11-15T09:19:00.314Z,102294.09
2017-11-15T09:21:01.968Z,102299.24
2017-11-15T09:23:03.561Z,102297.05
2017-11-15T09:25:04.946Z,102309.03
2017-11-15T09:27:06.520Z,102298.77
2017-11-15T09:29:08.046Z,102299.62
2017-11-15T09:31:09.711Z,102301.30
2017-11-15T09:33:11.039Z,102302.20
2017-11-15T09:35:12.377Z,102309.07
2017-11-15T09:37:14.152Z,102315.90
2017-11-15T09:39:15.698Z,102306.88
2017-11-15T09:41:17.159Z,102309.88
2017-11-15T09:43:18.816Z,102308.13
2017-11-15T09:45:20.356Z,102311.05
2017-11-15T09:47:21.909Z,102310.56
2017-11-15T09:49:27.254Z,102313.91
2017-11-15T09:51:28.544Z,102315.72
2017-11-15T09:53:30.750Z,102315.72
2017-11-15T09:55:32.104Z,102315.66
2017-11-15T09:57:33.652Z,102321.21
2017-11-15T09:59:35.317Z,102320.36
2017-11-15T10:01:36.758Z,102319.06
2017-11-15T10:03:38.091Z,102319.01
2017-11-15T10:05:39.438Z,102314.29
2017-11-15T10:07:40.785Z,102311.70
2017-11-15T10:09:42.343Z,102321.98
2017-11-15T10:11:43.783Z,102314.23
2017-11-15T10:13:45.217Z,102313.81
2017-11-15T10:15:46.801Z,102316.34
2017-11-15T10:17:48.236Z,102309.86
2017-11-15T10:19:49.784Z,102314.19
2017-11-15T10:21:51.429Z,102312.52
2017-11-15T10:23:53.078Z,102314.16
2017-11-15T10:25:54.655Z,102315.86
2017-11-15T10:27:56.306Z,102326.17
2017-11-15T10:29:57.945Z,102315.83
2017-11-15T10:32:00.317Z,102309.38
2017-11-15T10:34:01.649Z,102314.09
2017-11-15T10:36:03.113Z,102309.38
2017-11-15T10:38:04.767Z,102309.33
2017-11-15T10:40:06.208Z,102303.74
2017-11-15T10:42:07.671Z,102303.73
2017-11-15T10:44:09.427Z,102299.11
2017-11-15T10:46:10.980Z,102293.91
2017-11-15T10:48:12.703Z,102302.45
2017-11-15T10:50:14.380Z,102296.87
2017-11-15T10:52:16.029Z,102298.20
2017-11-15T10:54:17.701Z,102296.87
2017-11-15T10:56:19.331Z,102301.20
2017-11-15T10:58:20.790Z,102293.47
2017-11-15T11:00:22.332Z,102292.95
2017-11-15T11:02:23.882Z,102287.41
2017-11-15T11:04:25.433Z,102283.16
2017-11-15T11:06:26.990Z,102281.92
2017-11-15T11:08:28.423Z,102285.35
2017-11-15T11:10:29.879Z,102277.95
2017-11-15T11:12:31.434Z,102275.76
2017-11-15T11:14:32.885Z,102282.11
2017-11-15T11:16:34.545Z,102280.77
2017-11-15T11:18:36.079Z,102282.10
2017-11-15T11:20:37.641Z,102281.69
2017-11-15T11:22:39.181Z,102281.20
2017-11-15T11:24:40.647Z,102272.12
2017-11-15T11:26:42.080Z,102272.56
2017-11-15T11:28:43.638Z,102273.03
2017-11-15T11:30:45.280Z,102264.82
2017-11-15T11:32:47.198Z,102274.28
2017-11-15T11:34:48.752Z,102272.52
2017-11-15T11:36:50.244Z,102265.59
2017-11-15T11:38:51.694Z,102266.53
2017-11-15T11:40:53.130Z,102274.59
2017-11-15T11:42:54.705Z,102271.64
2017-11-15T11:44:56.237Z,102274.66
2017-11-15T11:46:57.804Z,102278.05
2017-11-15T11:48:59.350Z,102272.52
2017-11-15T11:51:00.793Z,102275.08
2017-11-15T11:53:02.239Z,102276.27
2017-11-15T11:55:04.530Z,102277.99
2017-11-15T11:57:06.052Z,102273.27
2017-11-15T11:59:07.589Z,102275.80
2017-11-15T12:01:09.169Z,102268.92
2017-11-15T12:03:10.833Z,102271.55
2017-11-15T12:05:12.590Z,102271.07
2017-11-15T12:07:14.112Z,102265.48
2017-11-15T12:09:15.879Z,102272.41
2017-11-15T12:11:17.522Z,102272.31
2017-11-15T12:13:18.831Z,102270.16
2017-11-15T12:15:20.428Z,102271.88
2017-11-15T12:17:21.779Z,102276.61
2017-11-15T12:19:23.212Z,102262.04
2017-11-15T12:21:24.738Z,102264.15
2017-11-15T12:23:26.320Z,102265.38
2017-11-15T12:25:29.626Z,102260.13
2017-11-15T12:27:31.155Z,102260.59
2017-11-15T12:29:32.615Z,102265.34
2017-11-15T12:31:34.258Z,102257.59
2017-11-15T12:33:35.805Z,102257.55
2017-11-15T12:35:37.259Z,102249.48
2017-11-15T12:37:40.354Z,102251.19
2017-11-15T12:39:41.798Z,102251.58
2017-11-15T12:41:43.359Z,102250.23
2017-11-15T12:43:45.542Z,102250.67
2017-11-15T12:45:47.166Z,102245.98
2017-11-15T12:47:48.826Z,102243.83
2017-11-15T12:49:50.366Z,102244.70
2017-11-15T12:51:51.907Z,102231.37
2017-11-15T12:53:53.475Z,102236.92
2017-11-15T12:55:55.115Z,102233.89
2017-11-15T12:57:56.670Z,102227.07
2017-11-15T12:59:58.324Z,102229.61
2017-11-15T13:01:59.984Z,102231.70
2017-11-15T13:04:01.645Z,102229.08
2017-11-15T13:06:02.974Z,102236.00
2017-11-15T13:08:04.801Z,102233.84
2017-11-15T13:10:06.577Z,102235.48
2017-11-15T13:12:08.137Z,102233.37
2017-11-15T13:14:09.936Z,102229.45
2017-11-15T13:16:11.561Z,102227.73
2017-11-15T13:18:13.088Z,102224.77
2017-11-15T13:20:14.660Z,102230.78
2017-11-15T13:22:16.101Z,102233.33
2017-11-15T13:24:17.848Z,102234.66
2017-11-15T13:26:19.611Z,102228.64
2017-11-15T13:28:21.049Z,102223.48
2017-11-15T13:30:22.597Z,102216.98
2017-11-15T13:32:24.091Z,102220.42
2017-11-15T13:34:25.706Z,102223.81
2017-11-15T13:36:27.178Z,102224.67
2017-11-15T13:38:28.817Z,102217.41
2017-11-15T13:40:30.231Z,102221.23
2017-11-15T13:42:31.709Z,102235.41
2017-11-15T13:44:33.245Z,102231.13
2017-11-15T13:46:34.706Z,102225.52
2017-11-15T13:48:36.252Z,102222.05
2017-11-15T13:50:38.324Z,102226.76
2017-11-15T13:52:40.675Z,102225.90
2017-11-15T13:54:42.140Z,102226.77
2017-11-15T13:56:43.459Z,102224.61
2017-11-15T13:58:44.814Z,102226.77
2017-11-15T14:00:46.269Z,102222.90
2017-11-15T14:02:47.711Z,102229.83
2017-11-15T14:04:49.063Z,102226.81
2017-11-15T14:06:51.032Z,102230.21
2017-11-15T14:08:53.280Z,102224.99
2017-11-15T14:10:54.860Z,102226.27
2017-11-15T14:12:56.398Z,102223.22
2017-11-15T14:14:58.054Z,102217.69
2017-11-15T14:17:00.411Z,102224.99
2017-11-15T14:19:01.931Z,102219.02
2017-11-15T14:21:03.540Z,102220.73
2017-11-15T14:23:05.079Z,102212.48
2017-11-15T14:25:06.826Z,102214.66
2017-11-15T14:27:08.372Z,102215.48
2017-11-15T14:29:10.118Z,102214.23
2017-11-15T14:31:11.786Z,102224.45
2017-11-15T14:33:13.376Z,102219.30
2017-11-15T14:35:14.979Z,102218.44
2017-11-15T14:37:16.633Z,102224.02
2017-11-15T14:39:18.193Z,102221.44
2017-11-15T14:41:19.851Z,102223.11
2017-11-15T14:43:21.601Z,102213.61
2017-11-15T14:45:23.357Z,102211.02
2017-11-15T14:47:26.024Z,102221.67
2017-11-15T14:49:27.673Z,102219.58
2017-11-15T14:51:30.121Z,102214.45
2017-11-15T14:53:34.885Z,102220.05
2017-11-15T14:55:36.731Z,102223.01
2017-11-15T14:57:38.597Z,102231.98
2017-11-15T14:59:40.150Z,102226.78
2017-11-15T15:01:41.911Z,102230.65
2017-11-15T15:03:43.565Z,102230.65
2017-11-15T15:05:45.312Z,102239.68
2017-11-15T15:07:46.837Z,102231.98
2017-11-15T15:09:48.286Z,102233.61
2017-11-15T15:11:49.761Z,102226.33
2017-11-15T15:13:51.626Z,102228.94
2017-11-15T15:15:53.359Z,102234.47
2017-11-15T15:17:55.138Z,102228.02
2017-11-15T15:19:56.677Z,102232.27
2017-11-15T15:21:58.342Z,102230.16
2017-11-15T15:23:59.877Z,102232.74
2017-11-15T15:26:01.347Z,102233.12
2017-11-15T15:28:03.256Z,102233.16
2017-11-15T15:30:05.254Z,102230.58
2017-11-15T15:32:07.116Z,102231.45
2017-11-15T15:34:08.849Z,102231.02
2017-11-15T15:36:10.682Z,102235.36
2017-11-15T15:38:12.007Z,102228.48
2017-11-15T15:40:13.996Z,102224.20
2017-11-15T15:42:15.997Z,102230.16
2017-11-15T15:44:17.832Z,102230.59
2017-11-15T15:46:19.550Z,102234.08
2017-11-15T15:48:21.445Z,102228.02
2017-11-15T15:50:23.056Z,102225.91
2017-11-15T15:52:24.772Z,102220.75
2017-11-15T15:54:26.530Z,102228.48
2017-11-15T15:56:28.284Z,102224.19
2017-11-15T15:58:30.143Z,102227.20
2017-11-15T16:00:31.897Z,102219.08
2017-11-15T16:02:33.376Z,102238.00
2017-11-15T16:04:35.377Z,102233.27
2017-11-15T16:06:37.261Z,102229.84
2017-11-15T16:08:39.017Z,102231.08
2017-11-15T16:10:40.900Z,102230.70
2017-11-15T16:12:42.822Z,102227.73
2017-11-15T16:14:44.816Z,102224.72
2017-11-15T16:16:46.619Z,102226.87
2017-11-15T16:18:48.167Z,102226.82
2017-11-15T16:20:49.684Z,102227.64
2017-11-15T16:22:51.492Z,102229.84
2017-11-15T16:24:53.365Z,102234.61
2017-11-15T16:26:55.294Z,102231.50
2017-11-15T16:28:56.964Z,102234.51
2017-11-15T16:30:58.917Z,102237.04
2017-11-15T16:33:00.817Z,102228.44
2017-11-15T16:35:02.534Z,102230.16
2017-11-15T16:37:04.404Z,102225.48
2017-11-15T16:39:06.154Z,102225.86
2017-11-15T16:41:08.632Z,102226.33
2017-11-15T16:43:10.383Z,102222.86
2017-11-15T16:45:11.930Z,102223.71
2017-11-15T16:47:13.696Z,102219.41
2017-11-15T16:49:15.289Z,102222.84
2017-11-15T16:51:16.907Z,102227.58
2017-11-15T16:53:18.652Z,102224.99
2017-11-15T16:55:20.627Z,102231.83
2017-11-15T16:57:22.362Z,102235.74
2017-11-15T16:59:24.117Z,102235.69
2017-11-15T17:01:25.995Z,102221.98
2017-11-15T17:03:28.002Z,102228.38
2017-11-15T17:05:30.211Z,102228.01
2017-11-15T17:07:32.060Z,102226.72
2017-11-15T17:09:33.847Z,102224.99
2017-11-15T17:11:35.687Z,102232.30
2017-11-15T17:13:38.155Z,102227.10
2017-11-15T17:15:40.227Z,102221.94
2017-11-15T17:17:42.076Z,102224.99
2017-11-15T17:19:43.823Z,102240.86
2017-11-15T17:21:45.688Z,102234.83
2017-11-15T17:23:47.434Z,102233.16
2017-11-15T17:25:49.396Z,102236.52
2017-11-15T17:27:51.165Z,102240.38
2017-11-15T17:29:53.013Z,102228.77
2017-11-15T17:31:54.894Z,102227.05
2017-11-15T17:33:56.820Z,102228.77
2017-11-15T17:35:58.702Z,102227.95
2017-11-15T17:38:00.654Z,102228.38
2017-11-15T17:40:02.306Z,102228.38
2017-11-15T17:42:04.063Z,102233.53
2017-11-15T17:44:05.938Z,102243.81
2017-11-15T17:46:07.771Z,102244.67
2017-11-15T17:48:09.645Z,102240.36
2017-11-15T17:50:11.616Z,102241.66
2017-11-15T17:52:13.456Z,102241.61
2017-11-15T17:54:15.233Z,102239.08
2017-11-15T17:56:17.360Z,102236.02
2017-11-15T17:58:19.119Z,102242.04
2017-11-15T18:00:20.978Z,102241.17
2017-11-15T18:02:22.850Z,102241.98
2017-11-15T18:04:24.699Z,102244.51
2017-11-15T18:06:26.446Z,102241.13
2017-11-15T18:08:28.306Z,102242.85
2017-11-15T18:10:30.091Z,102245.00
2017-11-15T18:12:31.816Z,102250.56
2017-11-15T18:14:33.658Z,102241.80
2017-11-15T18:16:35.110Z,102248.79
2017-11-15T18:18:36.875Z,102240.03
2017-11-15T18:20:38.845Z,102242.59
2017-11-15T18:22:40.614Z,102235.81
2017-11-15T18:24:42.354Z,102230.48
2017-11-15T18:26:44.537Z,102229.22
2017-11-15T18:28:46.570Z,102238.48
2017-11-15T18:30:48.440Z,102236.91
2017-11-15T18:32:50.080Z,102232.76
2017-11-15T18:34:51.838Z,102236.24
2017-11-15T18:36:53.626Z,102240.77
2017-11-15T18:38:55.670Z,102242.83
2017-11-15T18:40:57.420Z,102241.72
2017-11-15T18:42:59.170Z,102236.50
2017-11-15T18:45:01.045Z,102236.86
2017-11-15T18:47:02.885Z,102238.75
2017-11-15T18:49:04.652Z,102233.08
2017-11-15T18:51:06.300Z,102233.50
2017-11-15T18:53:08.266Z,102230.70
2017-11-15T18:55:09.816Z,102229.31
2017-11-15T18:57:12.059Z,102227.52
2017-11-15T18:59:14.150Z,102221.83
2017-11-15T19:01:15.918Z,102220.48
2017-11-15T19:03:17.889Z,102213.54
2017-11-15T19:05:19.734Z,102225.92
2017-11-15T19:07:22.179Z,102219.45
2017-11-15T19:09:24.034Z,102219.32
2017-11-15T19:11:25.798Z,102222.70
2017-11-15T19:13:27.568Z,102216.73
2017-11-15T19:15:29.408Z,102231.30
2017-11-15T19:17:31.175Z,102225.34
2017-11-15T19:19:33.133Z,102226.20
2017-11-15T19:21:34.975Z,102229.47
2017-11-15T19:23:36.653Z,102230.81
2017-11-15T19:25:43.222Z,102229.94
2017-11-15T19:27:45.061Z,102234.70
2017-11-15T19:29:46.822Z,102234.27
2017-11-15T19:31:48.582Z,102229.11
2017-11-15T19:33:50.431Z,102239.44
2017-11-15T19:35:52.207Z,102228.23
2017-11-15T19:37:54.040Z,102238.95
2017-11-15T19:39:55.812Z,102237.23
2017-11-15T19:41:57.564Z,102242.56
2017-11-15T19:43:59.319Z,102245.49
2017-11-15T19:46:00.961Z,102247.68
2017-11-15T19:48:02.740Z,102244.27
2017-11-15T19:50:04.397Z,102238.74
2017-11-15T19:52:06.224Z,102238.30
2017-11-15T19:54:07.975Z,102240.59
2017-11-15T19:56:09.741Z,102249.98
2017-11-15T19:58:11.587Z,102237.09
2017-11-15T20:00:13.339Z,102240.95
2017-11-15T20:02:15.113Z,102240.55
2017-11-15T20:04:17.062Z,102239.32
2017-11-15T20:06:18.919Z,102243.66
2017-11-15T20:08:20.880Z,102238.45
2017-11-15T20:10:22.746Z,102240.19
2017-11-15T20:12:24.523Z,102245.44
2017-11-15T20:14:26.268Z,102239.81
2017-11-15T20:16:28.133Z,102232.47
2017-11-15T20:18:30.004Z,102228.17
2017-11-15T20:20:31.870Z,102228.22
2017-11-15T20:22:34.009Z,102221.33
2017-11-15T20:24:35.752Z,102226.16
2017-11-15T20:26:37.498Z,102228.30
2017-11-15T20:28:39.465Z,102222.27
2017-11-15T20:30:41.219Z,102227.54
2017-11-15T20:32:43.079Z,102225.48
2017-11-15T20:34:44.924Z,102219.39
2017-11-15T20:36:46.602Z,102212.98
2017-11-15T20:38:48.337Z,102212.89
2017-11-15T20:40:50.117Z,102218.11
2017-11-15T20:42:52.031Z,102214.36
2017-11-15T20:44:53.809Z,102215.16
2017-11-15T20:46:55.696Z,102209.23
2017-11-15T20:48:57.539Z,102209.69
2017-11-15T20:50:59.287Z,102211.39
2017-11-15T20:53:01.143Z,102214.51
2017-11-15T20:55:02.907Z,102204.62
2017-11-15T20:57:04.657Z,102204.21
2017-11-15T20:59:06.423Z,102205.48
2017-11-15T21:01:08.272Z,102212.05
2017-11-15T21:03:10.028Z,102212.43
2017-11-15T21:05:12.143Z,102208.17
2017-11-15T21:07:13.929Z,102207.73
2017-11-15T21:09:15.597Z,102206.06
2017-11-15T21:11:17.511Z,102200.89
2017-11-15T21:13:19.525Z,102202.27
2017-11-15T21:15:21.159Z,102204.36
2017-11-15T21:17:22.933Z,102207.88
2017-11-15T21:19:24.585Z,102197.10
2017-11-15T21:21:26.328Z,102201.89
2017-11-15T21:23:28.208Z,102200.17
2017-11-15T21:25:30.048Z,102204.01
2017-11-15T21:27:31.813Z,102209.68
2017-11-15T21:29:33.579Z,102197.64
2017-11-15T21:31:36.134Z,102194.58
2017-11-15T21:33:37.912Z,102198.89
2017-11-15T21:35:39.871Z,102203.22
2017-11-15T21:37:42.920Z,102207.29
2017-11-15T21:39:45.505Z,102207.69
2017-11-15T21:41:47.262Z,102204.27
2017-11-15T21:43:49.017Z,102201.83
2017-11-15T21:45:50.785Z,102204.86
2017-11-15T21:47:52.648Z,102203.93
2017-11-15T21:49:54.478Z,102204.86
2017-11-15T21:51:56.967Z,102207.45
2017-11-15T21:53:58.726Z,102207.88
2017-11-15T21:56:00.461Z,102207.86
2017-11-15T21:58:02.147Z,102211.78
2017-11-15T22:00:04.091Z,102215.29
2017-11-15T22:02:05.858Z,102220.11
2017-11-15T22:04:07.808Z,102214.00
2017-11-15T22:06:09.790Z,102211.97
2017-11-15T22:08:11.621Z,102224.50
2017-11-15T22:10:13.406Z,102218.38
2017-11-15T22:12:15.251Z,102212.33
2017-11-15T22:14:17.197Z,102220.17
2017-11-15T22:16:18.947Z,102218.90
2017-11-15T22:18:20.870Z,102220.69
2017-11-15T22:20:22.881Z,102211.75
2017-11-15T22:22:24.619Z,102213.91
2017-11-15T22:24:26.393Z,102218.69
2017-11-15T22:26:28.251Z,102220.77
2017-11-15T22:28:30.019Z,102220.41
2017-11-15T22:30:31.859Z,102215.78
2017-11-15T22:32:33.604Z,102220.91
2017-11-15T22:34:35.285Z,102215.42
2017-11-15T22:36:37.227Z,102223.56
2017-11-15T22:38:39.013Z,102219.69
2017-11-15T22:40:40.951Z,102221.05
2017-11-15T22:42:42.694Z,102221.89
2017-11-15T22:44:44.457Z,102224.55
2017-11-15T22:46:46.250Z,102218.58
2017-11-15T22:48:48.072Z,102213.83
2017-11-15T22:50:49.925Z,102214.20
2017-11-15T22:52:51.719Z,102222.04
2017-11-15T22:54:53.631Z,102214.28
2017-11-15T22:56:55.401Z,102226.00
2017-11-15T22:58:57.262Z,102225.98
2017-11-15T23:00:59.204Z,102222.97
2017-11-15T23:03:00.971Z,102210.95
2017-11-15T23:05:02.728Z,102213.98
2017-11-15T23:07:04.586Z,102210.98
2017-11-15T23:09:06.434Z,102211.02